Nbp Island — V2FH3 — position and weather

sailwx.info

Track history (hours):
 
Tides and Currents Weather Stations Pressure Air Temp Water Temp Dewpoint Dewpoint Depression Visibility Wind Speed Wind Dir Waves Ship Positions

Nbp Island

Last reported at 2017-Jul-26 12:26 UTC. Time now 2017-Jul-27 08:52 UTC.
Position N 37°15' E 023°58'.

Length 107 m; draft 8.2 m.

Type: Cargo ship. MMSI: 305674000.

Date/timePositionNaut miles runAvg speedWind from/ knotsBaromVisibWave heightAir tempDewpointWater temp
2017-Jul-26 12:26N 37°15' E 023°58'511.7
2017-Jul-26 12:00N 37°11' E 023°55'611.6
2017-Jul-26 11:30N 37°06' E 023°52'611.8
2017-Jul-26 11:00N 37°00' E 023°48'612.0
2017-Jul-26 10:30N 36°55' E 023°45'2311.9
2017-Jul-26 08:34N 36°35' E 023°31'212.1
2017-Jul-26 08:26N 36°33' E 023°30'512.1
2017-Jul-26 08:00N 36°29' E 023°27'34010.2
2017-Jul-24 22:47N 36°29' E 016°25'511.0
2017-Jul-24 22:21N 36°29' E 016°19'811.0
2017-Jul-24 21:39N 36°30' E 016°09'211.0
2017-Jul-24 21:30N 36°30' E 016°07'611.0
2017-Jul-24 21:00N 36°31' E 016°00'510.9
2017-Jul-24 20:30N 36°31' E 015°54'510.9
2017-Jul-24 20:00N 36°32' E 015°47'511.0
2017-Jul-24 19:30N 36°32' E 015°40'510.9
2017-Jul-24 19:00N 36°32' E 015°34'610.9
2017-Jul-24 18:30N 36°33' E 015°27'510.9
2017-Jul-24 18:00N 36°33' E 015°20'510.3
2017-Jul-24 17:30N 36°33' E 015°14'510.3
2017-Jul-24 17:00N 36°33' E 015°07'510.3
2017-Jul-24 16:30N 36°34' E 015°01'510.8
2017-Jul-24 16:00N 36°34' E 014°54'3611.9
2017-Jul-24 13:00N 36°42' E 014°11'611.7
2017-Jul-24 12:30N 36°44' E 014°04'611.7
2017-Jul-24 12:00N 36°46' E 013°57'611.4
2017-Jul-24 11:30N 36°47' E 013°50'611.3
2017-Jul-24 11:00N 36°47' E 013°43'611.3
2017-Jul-24 10:30N 36°46' E 013°36'611.1
2017-Jul-24 10:00N 36°47' E 013°29'611.1
2017-Jul-24 09:30N 36°48' E 013°22'611.0
2017-Jul-24 09:00N 36°49' E 013°16'510.9
2017-Jul-24 08:30N 36°50' E 013°09'510.7
2017-Jul-24 08:00N 36°51' E 013°02'510.6
2017-Jul-24 07:30N 36°52' E 012°56'510.7
2017-Jul-24 07:00N 36°53' E 012°49'510.5
2017-Jul-24 06:30N 36°55' E 012°43'510.5
2017-Jul-24 06:00N 36°56' E 012°37'4711.2
2017-Jul-24 01:47N 37°12' E 011°41'311.5
2017-Jul-24 01:30N 37°13' E 011°37'1711.4
2017-Jul-23 23:59N 37°20' E 011°17'611.5
2017-Jul-23 23:30N 37°23' E 011°12'4311.4
2017-Jul-23 19:46N 37°32' E 010°19'411.9
2017-Jul-23 19:27N 37°33' E 010°15'510.6
2017-Jul-23 19:00N 37°35' E 010°09'511.0
2017-Jul-23 18:30N 37°34' E 010°02'510.6
2017-Jul-23 17:59N 37°34' E 009°55'510.7
2017-Jul-23 17:30N 37°34' E 009°49'510.7
2017-Jul-23 16:59N 37°35' E 009°42'510.8
2017-Jul-23 16:30N 37°35' E 009°35'510.8
2017-Jul-23 16:00N 37°36' E 009°28'610.9
2017-Jul-23 15:30N 37°36' E 009°22'611.0
2017-Jul-23 15:00N 37°36' E 009°15'611.1
2017-Jul-23 14:29N 37°37' E 009°08'611.2
2017-Jul-23 13:59N 37°37' E 009°00'611.2
2017-Jul-23 13:30N 37°37' E 008°54'611.0
2017-Jul-23 13:00N 37°37' E 008°47'611.0
2017-Jul-23 12:28N 37°37' E 008°39'9710.9
2017-Jul-23 03:33N 37°25' E 006°38'010.9
2017-Jul-23 03:30N 37°25' E 006°37'3110.9
2017-Jul-23 00:41N 37°21' E 005°59'210.7
2017-Jul-23 00:28N 37°20' E 005°56'510.7
2017-Jul-23 00:00N 37°19' E 005°50'2610.8
2017-Jul-22 21:36N 37°16' E 005°18'110.9
2017-Jul-22 21:29N 37°15' E 005°16'811.1
2017-Jul-22 20:49N 37°14' E 005°07'511.2
2017-Jul-22 20:24N 37°13' E 005°01'411.2
2017-Jul-22 20:00N 37°13' E 004°56'611.2
2017-Jul-22 19:30N 37°12' E 004°49'611.2
2017-Jul-22 19:00N 37°11' E 004°42'1210.8
2017-Jul-22 17:55N 37°10' E 004°27'2311.1
2017-Jul-22 15:53N 37°06' E 003°59'1511.2
2017-Jul-22 14:33N 37°04' E 003°41'3711.4
2017-Jul-22 11:17N 36°58' E 002°55'11510.9
2017-Jul-22 00:44N 36°42' E 000°33'210.8
2017-Jul-22 00:30N 36°41' E 000°30'610.8
2017-Jul-22 00:00N 36°40' E 000°23'510.8
2017-Jul-21 23:30N 36°39' E 000°16'510.9
2017-Jul-21 23:00N 36°39' E 000°10'510.8
2017-Jul-21 22:30N 36°38' E 000°03'510.8
2017-Jul-21 22:00N 36°37' W 000°04'610.8
2017-Jul-21 21:27N 36°36' W 000°11'46010.1
2017-Jul-20 00:02N 37°25' W 009°44'111.8
2017-Jul-19 23:55N 37°27' W 009°45'611.7
2017-Jul-19 23:26N 37°32' W 009°46'3911.7
2017-Jul-19 20:04N 38°11' W 009°58'311.8
2017-Jul-19 19:50N 38°13' W 009°59'411.7
2017-Jul-19 19:30N 38°17' W 009°60'611.8
2017-Jul-19 19:00N 38°23' W 010°01'611.7
2017-Jul-19 18:30N 38°29' W 010°02'611.6
2017-Jul-19 18:00N 38°34' W 010°04'612.0
2017-Jul-19 17:30N 38°40' W 010°06'611.7
2017-Jul-19 17:00N 38°46' W 010°06'611.5
2017-Jul-19 16:29N 38°52' W 010°06'511.6
2017-Jul-19 16:00N 38°57' W 010°06'611.6
2017-Jul-19 15:30N 39°03' W 010°06'611.6
2017-Jul-19 15:00N 39°09' W 010°06'611.6
2017-Jul-19 14:30N 39°15' W 010°06'  
2017-Jul-17 05:51N 48°31' W 006°06'410.0
2017-Jul-17 05:29N 48°34' W 006°03'1310.6
2017-Jul-17 04:17N 48°46' W 005°54'1010.9
2017-Jul-17 03:22N 48°54' W 005°46'511.2
2017-Jul-17 02:56N 48°57' W 005°40'5310.2
2017-Jul-16 21:45N 49°23' W 004°29'3 9.3
2017-Jul-16 21:24N 49°25' W 004°25'12 9.6
2017-Jul-16 20:08N 49°31' W 004°09'210.1
2017-Jul-16 19:57N 49°32' W 004°07'710.1
2017-Jul-16 19:14N 49°36' W 003°57'210.4
2017-Jul-16 19:00N 49°37' W 003°54'510.6
2017-Jul-16 18:30N 49°40' W 003°47'510.8
2017-Jul-16 18:00N 49°42' W 003°40'611.0
2017-Jul-16 17:30N 49°45' W 003°32'611.0
2017-Jul-16 17:00N 49°48' W 003°25'510.9
2017-Jul-16 16:30N 49°51' W 003°18'510.7
2017-Jul-16 16:00N 49°53' W 003°10'510.3
2017-Jul-16 15:30N 49°56' W 003°04'510.0
2017-Jul-16 15:00N 49°59' W 002°57'5 9.5
2017-Jul-16 14:30N 50°00' W 002°50'5 9.1
2017-Jul-16 14:00N 50°02' W 002°43'4 8.7
2017-Jul-16 13:30N 50°03' W 002°37'  
Track history (hours):
 
Tides and Currents Weather Stations Pressure Air Temp Water Temp Dewpoint Dewpoint Depression Visibility Wind Speed Wind Dir Waves Ship Positions

Nbp Island

Last reported at 2017-Jul-26 12:26 UTC. Time now 2017-Jul-27 08:52 UTC.
Position N 37°15' E 023°58'.

Length 107 m; draft 8.2 m.

Type: Cargo ship. MMSI: 305674000.

Date/timePositionNaut miles runAvg speedWind from/ knotsBaromVisibWave heightAir tempDewpointWater temp
2017-Jul-26 12:26N 37°15' E 023°58'511.7
2017-Jul-26 12:00N 37°11' E 023°55'611.6
2017-Jul-26 11:30N 37°06' E 023°52'611.8
2017-Jul-26 11:00N 37°00' E 023°48'612.0
2017-Jul-26 10:30N 36°55' E 023°45'2311.9
2017-Jul-26 08:34N 36°35' E 023°31'212.1
2017-Jul-26 08:26N 36°33' E 023°30'512.1
2017-Jul-26 08:00N 36°29' E 023°27'34010.2
2017-Jul-24 22:47N 36°29' E 016°25'511.0
2017-Jul-24 22:21N 36°29' E 016°19'811.0
2017-Jul-24 21:39N 36°30' E 016°09'211.0
2017-Jul-24 21:30N 36°30' E 016°07'611.0
2017-Jul-24 21:00N 36°31' E 016°00'510.9
2017-Jul-24 20:30N 36°31' E 015°54'510.9
2017-Jul-24 20:00N 36°32' E 015°47'511.0
2017-Jul-24 19:30N 36°32' E 015°40'510.9
2017-Jul-24 19:00N 36°32' E 015°34'610.9
2017-Jul-24 18:30N 36°33' E 015°27'510.9
2017-Jul-24 18:00N 36°33' E 015°20'510.3
2017-Jul-24 17:30N 36°33' E 015°14'510.3
2017-Jul-24 17:00N 36°33' E 015°07'510.3
2017-Jul-24 16:30N 36°34' E 015°01'510.8
2017-Jul-24 16:00N 36°34' E 014°54'3611.9
2017-Jul-24 13:00N 36°42' E 014°11'611.7
2017-Jul-24 12:30N 36°44' E 014°04'611.7
2017-Jul-24 12:00N 36°46' E 013°57'611.4
2017-Jul-24 11:30N 36°47' E 013°50'611.3
2017-Jul-24 11:00N 36°47' E 013°43'611.3
2017-Jul-24 10:30N 36°46' E 013°36'611.1
2017-Jul-24 10:00N 36°47' E 013°29'611.1
2017-Jul-24 09:30N 36°48' E 013°22'611.0
2017-Jul-24 09:00N 36°49' E 013°16'510.9
2017-Jul-24 08:30N 36°50' E 013°09'510.7
2017-Jul-24 08:00N 36°51' E 013°02'510.6
2017-Jul-24 07:30N 36°52' E 012°56'510.7
2017-Jul-24 07:00N 36°53' E 012°49'510.5
2017-Jul-24 06:30N 36°55' E 012°43'510.5
2017-Jul-24 06:00N 36°56' E 012°37'4711.2
2017-Jul-24 01:47N 37°12' E 011°41'311.5
2017-Jul-24 01:30N 37°13' E 011°37'1711.4
2017-Jul-23 23:59N 37°20' E 011°17'611.5
2017-Jul-23 23:30N 37°23' E 011°12'4311.4
2017-Jul-23 19:46N 37°32' E 010°19'411.9
2017-Jul-23 19:27N 37°33' E 010°15'510.6
2017-Jul-23 19:00N 37°35' E 010°09'511.0
2017-Jul-23 18:30N 37°34' E 010°02'510.6
2017-Jul-23 17:59N 37°34' E 009°55'510.7
2017-Jul-23 17:30N 37°34' E 009°49'510.7
2017-Jul-23 16:59N 37°35' E 009°42'510.8
2017-Jul-23 16:30N 37°35' E 009°35'510.8
2017-Jul-23 16:00N 37°36' E 009°28'610.9
2017-Jul-23 15:30N 37°36' E 009°22'611.0
2017-Jul-23 15:00N 37°36' E 009°15'611.1
2017-Jul-23 14:29N 37°37' E 009°08'611.2
2017-Jul-23 13:59N 37°37' E 009°00'611.2
2017-Jul-23 13:30N 37°37' E 008°54'611.0
2017-Jul-23 13:00N 37°37' E 008°47'611.0
2017-Jul-23 12:28N 37°37' E 008°39'9710.9
2017-Jul-23 03:33N 37°25' E 006°38'010.9
2017-Jul-23 03:30N 37°25' E 006°37'3110.9
2017-Jul-23 00:41N 37°21' E 005°59'210.7
2017-Jul-23 00:28N 37°20' E 005°56'510.7
2017-Jul-23 00:00N 37°19' E 005°50'2610.8
2017-Jul-22 21:36N 37°16' E 005°18'110.9
2017-Jul-22 21:29N 37°15' E 005°16'811.1
2017-Jul-22 20:49N 37°14' E 005°07'511.2
2017-Jul-22 20:24N 37°13' E 005°01'411.2
2017-Jul-22 20:00N 37°13' E 004°56'611.2
2017-Jul-22 19:30N 37°12' E 004°49'611.2
2017-Jul-22 19:00N 37°11' E 004°42'1210.8
2017-Jul-22 17:55N 37°10' E 004°27'2311.1
2017-Jul-22 15:53N 37°06' E 003°59'1511.2
2017-Jul-22 14:33N 37°04' E 003°41'3711.4
2017-Jul-22 11:17N 36°58' E 002°55'11510.9
2017-Jul-22 00:44N 36°42' E 000°33'210.8
2017-Jul-22 00:30N 36°41' E 000°30'610.8
2017-Jul-22 00:00N 36°40' E 000°23'510.8
2017-Jul-21 23:30N 36°39' E 000°16'510.9
2017-Jul-21 23:00N 36°39' E 000°10'510.8
2017-Jul-21 22:30N 36°38' E 000°03'510.8
2017-Jul-21 22:00N 36°37' W 000°04'610.8
2017-Jul-21 21:27N 36°36' W 000°11'46010.1
2017-Jul-20 00:02N 37°25' W 009°44'111.8
2017-Jul-19 23:55N 37°27' W 009°45'611.7
2017-Jul-19 23:26N 37°32' W 009°46'3911.7
2017-Jul-19 20:04N 38°11' W 009°58'311.8
2017-Jul-19 19:50N 38°13' W 009°59'411.7
2017-Jul-19 19:30N 38°17' W 009°60'611.8
2017-Jul-19 19:00N 38°23' W 010°01'611.7
2017-Jul-19 18:30N 38°29' W 010°02'611.6
2017-Jul-19 18:00N 38°34' W 010°04'612.0
2017-Jul-19 17:30N 38°40' W 010°06'611.7
2017-Jul-19 17:00N 38°46' W 010°06'611.5
2017-Jul-19 16:29N 38°52' W 010°06'511.6
2017-Jul-19 16:00N 38°57' W 010°06'611.6
2017-Jul-19 15:30N 39°03' W 010°06'611.6
2017-Jul-19 15:00N 39°09' W 010°06'611.6
2017-Jul-19 14:30N 39°15' W 010°06'  
2017-Jul-17 05:51N 48°31' W 006°06'410.0
2017-Jul-17 05:29N 48°34' W 006°03'1310.6
2017-Jul-17 04:17N 48°46' W 005°54'1010.9
2017-Jul-17 03:22N 48°54' W 005°46'511.2
2017-Jul-17 02:56N 48°57' W 005°40'5310.2
2017-Jul-16 21:45N 49°23' W 004°29'3 9.3
2017-Jul-16 21:24N 49°25' W 004°25'12 9.6
2017-Jul-16 20:08N 49°31' W 004°09'210.1
2017-Jul-16 19:57N 49°32' W 004°07'710.1
2017-Jul-16 19:14N 49°36' W 003°57'210.4
2017-Jul-16 19:00N 49°37' W 003°54'510.6
2017-Jul-16 18:30N 49°40' W 003°47'510.8
2017-Jul-16 18:00N 49°42' W 003°40'611.0
2017-Jul-16 17:30N 49°45' W 003°32'611.0
2017-Jul-16 17:00N 49°48' W 003°25'510.9
2017-Jul-16 16:30N 49°51' W 003°18'510.7
2017-Jul-16 16:00N 49°53' W 003°10'510.3
2017-Jul-16 15:30N 49°56' W 003°04'510.0
2017-Jul-16 15:00N 49°59' W 002°57'5 9.5
2017-Jul-16 14:30N 50°00' W 002°50'5 9.1
2017-Jul-16 14:00N 50°02' W 002°43'4 8.7
2017-Jul-16 13:30N 50°03' W 002°37'  

Dump ship's entire track history